Time;durP1;ratioP1;P1;durP2;ratioP2;P2;SDS_P1;SDS_P2;PMS_P1;PMS_P2;Temp;Humidity;BMP_temperature;BMP_pressure;BME280_temperature;BME280_humidity;BME280_pressure;Samples;Min_cycle;Max_cycle;Signal;HPM_P1;HPM_P2
2020/12/22 00:04:40;;;;;;;10.27;6.43;;;;;;;;;;10336490;28;20036;-64
2020/12/22 00:09:37;;;;;;;13.70;8.43;;;;;;;;;;10358472;28;20037;-64
2020/12/22 00:14:35;;;;;;;13.93;8.57;;;;;;;;;;10356556;28;20036;-63
2020/12/22 00:19:32;;;;;;;11.47;6.43;;;;;;;;;;10337981;28;20032;-63
2020/12/22 00:24:29;;;;;;;14.53;6.93;;;;;;;;;;10365075;28;20726;-63
2020/12/22 00:29:27;;;;;;;11.07;7.10;;;;;;;;;;10352492;28;20033;-62
2020/12/22 00:34:24;;;;;;;10.10;6.93;;;;;;;;;;10363962;28;20040;-63
2020/12/22 00:39:22;;;;;;;11.73;8.00;;;;;;;;;;10341479;28;20736;-63
2020/12/22 00:44:19;;;;;;;13.60;7.63;;;;;;;;;;10363402;28;20375;-62
2020/12/22 00:49:17;;;;;;;11.33;6.60;;;;;;;;;;10358478;28;20029;-63
2020/12/22 00:54:14;;;;;;;9.00;5.47;;;;;;;;;;10316782;28;20463;-61
2020/12/22 00:59:12;;;;;;;9.83;6.20;;;;;;;;;;10366972;28;20128;-62
2020/12/22 01:04:09;;;;;;;10.70;5.77;;;;;;;;;;10352589;28;20207;-62
2020/12/22 01:09:07;;;;;;;9.93;6.13;;;;;;;;;;10370831;28;20132;-62
2020/12/22 01:14:05;;;;;;;9.83;5.30;;;;;;;;;;10355686;28;20074;-62
2020/12/22 01:19:03;;;;;;;12.13;7.22;;;;;;;;;;10331171;28;20033;-62
2020/12/22 01:24:00;;;;;;;10.93;6.13;;;;;;;;;;10369761;28;20032;-62
2020/12/22 01:28:58;;;;;;;8.47;5.50;;;;;;;;;;10305393;28;20400;-61
2020/12/22 01:33:56;;;;;;;11.53;5.87;;;;;;;;;;10370963;28;20290;-63
2020/12/22 01:38:54;;;;;;;10.27;6.25;;;;;;;;;;10371889;28;20028;-65
2020/12/22 01:44:07;;;;;;;9.20;5.20;;;;;;;;;;10373479;28;20032;-65
2020/12/22 01:49:12;;;;;;;10.95;6.30;;;;;;;;;;10377591;28;20082;-62
2020/12/22 01:54:10;;;;;;;10.23;6.15;;;;;;;;;;10337814;28;20493;-63
2020/12/22 01:59:07;;;;;;;8.40;4.50;;;;;;;;;;10374817;28;20094;-62
2020/12/22 02:04:05;;;;;;;7.33;4.63;;;;;;;;;;10309847;28;20033;-62
2020/12/22 02:09:04;;;;;;;8.65;5.53;;;;;;;;;;10376339;28;20040;-63
2020/12/22 02:14:03;;;;;;;6.53;4.40;;;;;;;;;;10315521;28;20515;-62
2020/12/22 02:19:00;;;;;;;9.85;5.95;;;;;;;;;;10365223;28;20040;-61
2020/12/22 02:23:57;;;;;;;9.93;5.33;;;;;;;;;;10371267;28;20043;-62
2020/12/22 02:28:55;;;;;;;9.53;6.40;;;;;;;;;;10363528;28;20025;-63
2020/12/22 02:33:53;;;;;;;10.57;6.03;;;;;;;;;;10339958;28;20170;-62
2020/12/22 02:38:50;;;;;;;5.90;3.43;;;;;;;;;;10347771;28;20040;-62
2020/12/22 02:43:47;;;;;;;9.17;4.30;;;;;;;;;;10358991;28;20040;-63
2020/12/22 02:48:45;;;;;;;10.70;4.60;;;;;;;;;;10364004;28;20029;-63
2020/12/22 02:53:42;;;;;;;6.93;4.00;;;;;;;;;;10365742;28;20171;-62
2020/12/22 02:58:39;;;;;;;7.87;5.07;;;;;;;;;;10363568;28;20051;-62
2020/12/22 03:03:37;;;;;;;7.30;4.50;;;;;;;;;;10328941;28;20041;-63
2020/12/22 03:08:34;;;;;;;4.77;3.10;;;;;;;;;;10327220;28;20491;-62
2020/12/22 03:13:31;;;;;;;8.50;5.03;;;;;;;;;;10349416;28;20025;-63
2020/12/22 03:18:29;;;;;;;5.87;3.97;;;;;;;;;;10351812;28;20029;-64
2020/12/22 03:23:26;;;;;;;5.50;3.60;;;;;;;;;;10361254;28;20059;-63
2020/12/22 03:28:24;;;;;;;7.40;4.10;;;;;;;;;;10349590;28;20669;-63
2020/12/22 03:33:21;;;;;;;5.73;2.80;;;;;;;;;;10361056;28;20031;-61
2020/12/22 03:38:18;;;;;;;4.27;2.97;;;;;;;;;;10354396;28;20043;-62
2020/12/22 03:43:16;;;;;;;4.60;3.37;;;;;;;;;;10368311;28;20040;-63
2020/12/22 03:48:13;;;;;;;9.60;3.47;;;;;;;;;;10363041;28;20028;-61
2020/12/22 03:53:10;;;;;;;5.43;2.90;;;;;;;;;;10330553;28;20469;-62
2020/12/22 03:58:08;;;;;;;4.43;2.97;;;;;;;;;;10332053;28;20060;-63
2020/12/22 04:03:05;;;;;;;4.47;2.70;;;;;;;;;;10341844;28;20044;-62
2020/12/22 04:08:03;;;;;;;7.60;2.30;;;;;;;;;;10323740;28;20031;-62
2020/12/22 04:13:00;;;;;;;2.83;2.03;;;;;;;;;;10327347;28;20029;-62
2020/12/22 04:17:57;;;;;;;5.03;2.10;;;;;;;;;;10351701;28;20029;-62
2020/12/22 04:22:55;;;;;;;4.73;2.53;;;;;;;;;;10370450;28;20036;-62
2020/12/22 04:27:52;;;;;;;4.37;1.67;;;;;;;;;;10357381;28;20491;-63
2020/12/22 04:32:49;;;;;;;3.90;2.00;;;;;;;;;;10338277;28;20051;-62
2020/12/22 04:37:47;;;;;;;3.20;1.90;;;;;;;;;;10333393;28;20029;-63
2020/12/22 04:42:45;;;;;;;2.40;1.53;;;;;;;;;;10338373;28;20453;-63
2020/12/22 04:47:42;;;;;;;4.67;2.67;;;;;;;;;;10368212;28;20094;-63
2020/12/22 04:52:40;;;;;;;3.60;1.17;;;;;;;;;;10363189;28;20321;-63
2020/12/22 04:57:45;;;;;;;1.02;0.95;;;;;;;;;;10364434;28;20041;-63
2020/12/22 05:02:43;;;;;;;1.98;1.48;;;;;;;;;;10347263;28;20052;-63
2020/12/22 05:07:41;;;;;;;2.80;1.15;;;;;;;;;;10346478;28;20624;-63
2020/12/22 05:12:42;;;;;;;1.73;1.10;;;;;;;;;;10356758;28;20040;-63
2020/12/22 05:17:40;;;;;;;1.20;1.10;;;;;;;;;;10349300;28;20033;-64
2020/12/22 05:22:37;;;;;;;3.13;0.93;;;;;;;;;;10344373;28;20057;-63
2020/12/22 05:27:35;;;;;;;3.13;0.97;;;;;;;;;;10347350;28;20048;-63
2020/12/22 05:32:32;;;;;;;2.47;0.97;;;;;;;;;;10350754;28;20081;-64
2020/12/22 05:37:29;;;;;;;7.63;1.97;;;;;;;;;;10349534;28;20035;-62
2020/12/22 05:42:27;;;;;;;1.63;0.80;;;;;;;;;;10355094;28;20036;-64
2020/12/22 05:47:25;;;;;;;3.05;1.40;;;;;;;;;;10347488;28;20032;-63
2020/12/22 05:52:23;;;;;;;2.80;0.67;;;;;;;;;;10344042;28;20032;-63
2020/12/22 05:57:24;;;;;;;3.38;0.73;;;;;;;;;;10343697;28;20511;-63
2020/12/22 06:02:32;;;;;;;1.65;0.50;;;;;;;;;;10347956;28;20041;-64
2020/12/22 06:07:29;;;;;;;1.15;0.50;;;;;;;;;;10346151;28;20048;-64
2020/12/22 06:12:29;;;;;;;5.13;0.60;;;;;;;;;;10357256;28;20052;-64
2020/12/22 06:17:26;;;;;;;0.88;0.50;;;;;;;;;;10346497;28;20598;-64
2020/12/22 06:22:23;;;;;;;0.30;0.30;;;;;;;;;;10330459;28;20415;-63
2020/12/22 06:27:30;;;;;;;2.00;0.73;;;;;;;;;;10337871;28;20419;-64
2020/12/22 06:32:28;;;;;;;1.55;0.60;;;;;;;;;;10342956;28;20049;-62
2020/12/22 06:37:42;;;;;;;2.47;0.90;;;;;;;;;;10353096;28;20370;-63
2020/12/22 06:42:40;;;;;;;1.20;0.70;;;;;;;;;;10343525;28;20410;-63
2020/12/22 06:47:37;;;;;;;2.03;1.03;;;;;;;;;;10352478;28;20075;-65
2020/12/22 06:52:38;;;;;;;1.00;0.70;;;;;;;;;;10354980;28;20032;-62
2020/12/22 06:57:43;;;;;;;1.48;0.82;;;;;;;;;;10351679;28;20085;-63
2020/12/22 07:02:40;;;;;;;0.88;0.80;;;;;;;;;;10356662;28;20504;-63
2020/12/22 07:07:57;;;;;;;1.40;1.00;;;;;;;;;;10348377;28;20135;-63
2020/12/22 07:12:58;;;;;;;1.27;0.80;;;;;;;;;;10361385;28;20072;-63
2020/12/22 07:18:16;;;;;;;2.30;0.93;;;;;;;;;;10339361;28;20036;-65
2020/12/22 07:23:14;;;;;;;1.48;0.73;;;;;;;;;;10305256;28;20037;-63
2020/12/22 07:28:11;;;;;;;1.23;1.13;;;;;;;;;;10295957;28;20053;-64
2020/12/22 07:33:09;;;;;;;3.17;1.27;;;;;;;;;;10307415;28;20524;-63
2020/12/22 07:38:07;;;;;;;1.07;0.90;;;;;;;;;;10357638;28;20390;-65
2020/12/22 07:43:06;;;;;;;1.58;0.98;;;;;;;;;;10338015;28;20071;-65
2020/12/22 07:48:07;;;;;;;3.22;1.45;;;;;;;;;;10355347;28;20429;-65
2020/12/22 07:53:05;;;;;;;2.85;1.63;;;;;;;;;;10364262;28;20621;-65
2020/12/22 07:58:03;;;;;;;1.43;1.23;;;;;;;;;;10379662;28;20055;-63
2020/12/22 08:03:00;;;;;;;;;;;;;;;;;;10359399;28;20090;-65
2020/12/22 08:07:58;;;;;;;1.67;1.23;;;;;;;;;;10332235;28;20304;-65
2020/12/22 08:12:57;;;;;;;1.10;1.10;;;;;;;;;;10327628;28;20033;-62
2020/12/22 08:17:55;;;;;;;1.83;1.35;;;;;;;;;;10353043;28;20669;-65
2020/12/22 08:22:53;;;;;;;6.57;2.38;;;;;;;;;;10370776;28;20047;-65
2020/12/22 08:27:52;;;;;;;6.53;2.73;;;;;;;;;;10342524;28;20421;-66
2020/12/22 08:32:50;;;;;;;3.45;1.90;;;;;;;;;;10349444;28;20777;-65
2020/12/22 08:37:47;;;;;;;2.87;1.97;;;;;;;;;;10362502;28;20071;-66
2020/12/22 08:42:48;;;;;;;4.07;2.27;;;;;;;;;;10366591;28;20035;-65
2020/12/22 08:47:52;;;;;;;1.92;1.60;;;;;;;;;;10349884;28;20028;-65
2020/12/22 08:52:50;;;;;;;1.88;1.40;;;;;;;;;;10328843;28;20035;-65
2020/12/22 08:57:47;;;;;;;2.30;2.00;;;;;;;;;;10330641;28;20036;-65
2020/12/22 09:02:51;;;;;;;1.80;1.70;;;;;;;;;;10365375;28;21692;-67
2020/12/22 09:07:58;;;;;;;3.53;1.50;;;;;;;;;;10370370;28;20044;-66
2020/12/22 09:12:56;;;;;;;1.90;1.05;;;;;;;;;;10369226;28;20116;-65
2020/12/22 09:17:53;;;;;;;1.40;0.80;;;;;;;;;;10353755;28;20112;-65
2020/12/22 09:22:50;;;;;;;0.83;0.80;;;;;;;;;;10330535;28;20561;-65
2020/12/22 09:27:51;;;;;;;1.17;0.53;;;;;;;;;;10362606;28;20028;-66
2020/12/22 09:32:50;;;;;;;3.13;1.17;;;;;;;;;;10358144;28;20089;-65
2020/12/22 09:37:47;;;;;;;5.72;0.70;;;;;;;;;;10341736;28;20090;-65
2020/12/22 09:42:44;;;;;;;2.07;0.80;;;;;;;;;;10322373;28;20040;-65
2020/12/22 09:47:42;;;;;;;1.10;1.00;;;;;;;;;;10346189;28;20045;-65
2020/12/22 09:52:40;;;;;;;1.23;1.07;;;;;;;;;;10344680;28;20051;-65
2020/12/22 09:57:39;;;;;;;2.08;1.25;;;;;;;;;;10328706;22;20575;-66
2020/12/22 10:02:36;;;;;;;4.13;1.40;;;;;;;;;;10310317;28;20029;-65
2020/12/22 10:07:33;;;;;;;4.73;1.30;;;;;;;;;;10323542;28;20518;-65
2020/12/22 10:12:31;;;;;;;2.57;1.23;;;;;;;;;;10349368;28;20039;-66
2020/12/22 10:17:28;;;;;;;6.13;1.13;;;;;;;;;;10354038;28;20085;-65
2020/12/22 10:22:29;;;;;;;4.50;1.40;;;;;;;;;;10344892;28;20033;-65
2020/12/22 10:27:26;;;;;;;7.22;1.25;;;;;;;;;;10352079;28;20611;-65
2020/12/22 10:32:24;;;;;;;5.70;1.70;;;;;;;;;;10343822;28;20127;-65
2020/12/22 10:37:22;;;;;;;5.27;1.73;;;;;;;;;;10348820;28;20120;-65
2020/12/22 10:42:19;;;;;;;6.27;2.23;;;;;;;;;;10339383;28;20040;-66
2020/12/22 10:47:17;;;;;;;4.27;1.83;;;;;;;;;;10351168;28;20067;-65
2020/12/22 10:52:15;;;;;;;;;;;;;;;;;;10328072;28;20048;-66
2020/12/22 10:57:12;;;;;;;9.90;2.28;;;;;;;;;;10341319;28;19920;-65
2020/12/22 11:02:10;;;;;;;4.37;1.97;;;;;;;;;;10349694;28;20036;-65
2020/12/22 11:07:13;;;;;;;6.87;2.83;;;;;;;;;;10353121;28;20052;-66
2020/12/22 11:12:10;;;;;;;4.30;2.22;;;;;;;;;;10353519;28;20037;-65
2020/12/22 11:17:08;;;;;;;5.93;2.07;;;;;;;;;;10345908;28;20033;-66
2020/12/22 11:22:05;;;;;;;6.80;3.03;;;;;;;;;;10347306;28;20041;-65
2020/12/22 11:27:03;;;;;;;9.00;2.27;;;;;;;;;;10352873;28;20060;-66
2020/12/22 11:32:01;;;;;;;9.48;1.88;;;;;;;;;;10331835;28;20038;-66
2020/12/22 11:36:58;;;;;;;4.33;1.80;;;;;;;;;;10338699;28;20037;-66
2020/12/22 11:42:05;;;;;;;1.97;1.47;;;;;;;;;;10344013;28;20033;-65
2020/12/22 11:47:02;;;;;;;3.75;1.80;;;;;;;;;;10360900;28;20749;-66
2020/12/22 11:52:00;;;;;;;5.13;1.27;;;;;;;;;;10347927;28;20040;-65
2020/12/22 11:56:58;;;;;;;4.37;1.10;;;;;;;;;;10361597;28;20048;-64
2020/12/22 12:01:55;;;;;;;5.30;1.95;;;;;;;;;;10360650;28;20282;-65
2020/12/22 12:06:53;;;;;;;5.40;1.30;;;;;;;;;;10363489;28;20028;-65
2020/12/22 12:11:51;;;;;;;3.10;0.80;;;;;;;;;;10360096;28;20068;-65
2020/12/22 12:16:49;;;;;;;6.57;0.67;;;;;;;;;;10363491;28;20421;-65
2020/12/22 12:21:46;;;;;;;8.98;1.45;;;;;;;;;;10369057;28;20425;-66
2020/12/22 12:26:44;;;;;;;4.37;1.40;;;;;;;;;;10361742;28;20047;-65
2020/12/22 12:31:41;;;;;;;7.23;1.37;;;;;;;;;;10345655;28;20045;-66
2020/12/22 12:36:38;;;;;;;3.97;1.23;;;;;;;;;;10365949;28;20086;-65
2020/12/22 12:41:36;;;;;;;8.23;1.10;;;;;;;;;;10337749;28;20043;-66
2020/12/22 12:46:34;;;;;;;4.25;1.15;;;;;;;;;;10362740;28;20044;-65
2020/12/22 12:51:34;;;;;;;3.03;1.17;;;;;;;;;;10331186;28;20044;-66
2020/12/22 12:56:32;;;;;;;6.15;0.70;;;;;;;;;;10303534;28;20038;-64
2020/12/22 13:01:29;;;;;;;7.97;1.20;;;;;;;;;;10298641;28;20576;-66
2020/12/22 13:06:28;;;;;;;7.10;1.53;;;;;;;;;;10298115;28;20069;-66
2020/12/22 13:11:26;;;;;;;3.38;0.65;;;;;;;;;;10270576;28;20037;-65
2020/12/22 13:16:23;;;;;;;6.60;1.53;;;;;;;;;;10286847;28;20029;-66
2020/12/22 13:21:21;;;;;;;4.43;1.10;;;;;;;;;;10305788;28;20029;-65
2020/12/22 13:26:18;;;;;;;12.77;1.67;;;;;;;;;;10286493;28;20072;-65
2020/12/22 13:31:16;;;;;;;7.03;1.20;;;;;;;;;;10290884;28;20044;-65
2020/12/22 13:36:13;;;;;;;6.40;2.07;;;;;;;;;;10293340;28;20033;-65
2020/12/22 13:41:11;;;;;;;6.13;1.53;;;;;;;;;;10316565;28;20117;-67
2020/12/22 13:46:08;;;;;;;8.30;2.78;;;;;;;;;;10337887;28;20619;-65
2020/12/22 13:51:11;;;;;;;9.97;2.30;;;;;;;;;;10304220;28;20129;-66
2020/12/22 13:56:16;;;;;;;3.10;1.55;;;;;;;;;;10322314;28;20637;-66
2020/12/22 14:01:14;;;;;;;14.43;1.38;;;;;;;;;;10298662;28;20037;-64
2020/12/22 14:06:11;;;;;;;6.10;1.40;;;;;;;;;;10277563;28;20029;-66
2020/12/22 14:11:08;;;;;;;8.10;1.47;;;;;;;;;;10329667;28;20049;-66
2020/12/22 14:16:10;;;;;;;8.60;1.83;;;;;;;;;;10321010;28;20037;-64
2020/12/22 14:21:12;;;;;;;10.07;1.48;;;;;;;;;;10331268;28;20033;-65
2020/12/22 14:26:10;;;;;;;4.43;1.30;;;;;;;;;;10359418;28;20047;-65
2020/12/22 14:31:08;;;;;;;13.10;1.98;;;;;;;;;;10355354;28;20051;-65
2020/12/22 14:36:05;;;;;;;15.57;1.33;;;;;;;;;;10345621;28;20649;-64
2020/12/22 14:41:09;;;;;;;5.07;1.20;;;;;;;;;;10347086;28;20647;-64
2020/12/22 14:46:06;;;;;;;5.75;1.08;;;;;;;;;;10340546;28;20646;-64
2020/12/22 14:51:04;;;;;;;5.30;1.23;;;;;;;;;;10361598;28;20452;-66
2020/12/22 14:56:05;;;;;;;4.40;0.93;;;;;;;;;;10360338;28;20037;-64
2020/12/22 15:01:05;;;;;;;6.07;1.10;;;;;;;;;;10337750;28;20459;-63
2020/12/22 15:06:03;;;;;;;4.18;1.42;;;;;;;;;;10361091;28;20131;-66
2020/12/22 15:11:01;;;;;;;5.37;1.43;;;;;;;;;;10362414;28;20155;-63
2020/12/22 15:15:59;;;;;;;2.58;1.13;;;;;;;;;;10333987;28;20676;-62
2020/12/22 15:20:56;;;;;;;2.20;0.70;;;;;;;;;;10349221;28;20033;-64
2020/12/22 15:25:54;;;;;;;3.10;0.60;;;;;;;;;;10346619;28;20032;-64
2020/12/22 15:30:51;;;;;;;4.40;0.70;;;;;;;;;;10341111;28;20963;-64
2020/12/22 15:35:48;;;;;;;8.53;1.50;;;;;;;;;;10347605;28;20032;-66
2020/12/22 15:40:47;;;;;;;3.33;0.60;;;;;;;;;;10364069;28;20043;-64
2020/12/22 15:45:44;;;;;;;4.78;1.20;;;;;;;;;;10341797;28;20040;-64
2020/12/22 15:50:42;;;;;;;6.60;1.40;;;;;;;;;;10328876;28;20040;-64
2020/12/22 15:55:42;;;;;;;6.73;0.77;;;;;;;;;;10342840;28;20511;-64
2020/12/22 16:00:40;;;;;;;8.18;0.95;;;;;;;;;;10363939;28;20040;-64
2020/12/22 16:05:37;;;;;;;3.10;0.87;;;;;;;;;;10364192;28;20047;-63
2020/12/22 16:10:34;;;;;;;2.70;1.03;;;;;;;;;;10359826;28;20036;-64
2020/12/22 16:15:32;;;;;;;4.70;1.20;;;;;;;;;;10353699;28;20094;-64
2020/12/22 16:20:29;;;;;;;8.77;1.20;;;;;;;;;;10349564;28;20029;-64
2020/12/22 16:25:27;;;;;;;9.10;1.40;;;;;;;;;;10357545;28;20041;-64
2020/12/22 16:30:24;;;;;;;11.07;1.50;;;;;;;;;;10356020;28;20495;-64
2020/12/22 16:35:21;;;;;;;5.87;1.17;;;;;;;;;;10332644;28;20736;-64
2020/12/22 16:40:19;;;;;;;7.53;1.70;;;;;;;;;;10324228;28;21744;-64
2020/12/22 16:45:16;;;;;;;5.63;0.97;;;;;;;;;;10315294;28;20150;-64
2020/12/22 16:50:14;;;;;;;3.40;1.30;;;;;;;;;;10340624;28;20036;-64
2020/12/22 16:55:12;;;;;;;9.57;1.58;;;;;;;;;;10351285;28;20033;-64
2020/12/22 17:00:09;;;;;;;8.20;2.13;;;;;;;;;;10344373;28;20437;-63
2020/12/22 17:05:07;;;;;;;2.93;1.40;;;;;;;;;;10324735;28;20511;-64
2020/12/22 17:10:04;;;;;;;12.80;2.63;;;;;;;;;;10318029;28;20025;-64
2020/12/22 17:15:02;;;;;;;6.67;1.67;;;;;;;;;;10327247;28;20037;-64
2020/12/22 17:19:59;;;;;;;6.65;2.30;;;;;;;;;;10295176;28;20041;-64
2020/12/22 17:24:57;;;;;;;12.77;1.83;;;;;;;;;;10304991;28;20029;-64
2020/12/22 17:34:56;;;;;;;11.48;2.55;;;;;;;;;;10175540;28;20050;-65
2020/12/22 17:39:54;;;;;;;12.07;2.07;;;;;;;;;;10216534;28;20039;-65
2020/12/22 17:44:52;;;;;;;8.55;2.50;;;;;;;;;;10215884;28;20499;-65
2020/12/22 17:49:51;;;;;;;4.95;2.08;;;;;;;;;;10217889;28;20065;-64
2020/12/22 17:54:48;;;;;;;4.80;2.00;;;;;;;;;;10205451;28;20057;-62
2020/12/22 17:59:46;;;;;;;4.33;1.80;;;;;;;;;;10205701;28;20048;-64
2020/12/22 18:04:43;;;;;;;8.77;2.47;;;;;;;;;;10266630;23;20120;-62
2020/12/22 18:09:40;;;;;;;9.47;2.23;;;;;;;;;;10345686;28;20067;-64
2020/12/22 18:14:38;;;;;;;5.73;2.10;;;;;;;;;;10339617;28;20474;-61
2020/12/22 18:19:35;;;;;;;6.27;1.27;;;;;;;;;;10350054;28;20040;-64
2020/12/22 18:24:33;;;;;;;6.60;1.30;;;;;;;;;;10350679;28;20059;-63
2020/12/22 18:29:30;;;;;;;0.33;0.33;;;;;;;;;;10349243;28;20120;-63
2020/12/22 18:34:28;;;;;;;4.87;1.27;;;;;;;;;;10359299;28;20448;-62
2020/12/22 18:39:25;;;;;;;2.47;0.93;;;;;;;;;;10352977;28;20036;-62
2020/12/22 18:44:22;;;;;;;0.70;0.70;;;;;;;;;;10358040;28;20036;-63
2020/12/22 18:49:21;;;;;;;8.57;0.70;;;;;;;;;;10356318;28;20032;-64
2020/12/22 18:54:19;;;;;;;1.27;0.30;;;;;;;;;;10363329;28;20029;-64
2020/12/22 18:59:16;;;;;;;1.30;0.50;;;;;;;;;;10368644;28;20054;-65
2020/12/22 19:04:14;;;;;;;2.57;1.17;;;;;;;;;;10362892;28;20051;-64
2020/12/22 19:09:11;;;;;;;6.93;1.87;;;;;;;;;;10339227;28;20031;-64
2020/12/22 19:14:12;;;;;;;6.37;1.07;;;;;;;;;;10353207;28;20106;-64
2020/12/22 19:19:09;;;;;;;6.25;1.67;;;;;;;;;;10358659;28;20119;-64
2020/12/22 19:24:07;;;;;;;2.27;0.90;;;;;;;;;;10367901;28;20123;-64
2020/12/22 19:29:04;;;;;;;1.60;0.97;;;;;;;;;;10343955;28;20032;-64
2020/12/22 19:34:02;;;;;;;3.03;1.30;;;;;;;;;;10360100;28;20037;-65
2020/12/22 19:38:59;;;;;;;2.10;0.90;;;;;;;;;;10347740;28;20036;-64
2020/12/22 19:43:57;;;;;;;2.33;1.10;;;;;;;;;;10349258;28;20025;-64
2020/12/22 19:48:55;;;;;;;1.50;0.67;;;;;;;;;;10328450;28;20036;-64
2020/12/22 19:53:52;;;;;;;7.80;2.00;;;;;;;;;;10348305;28;20036;-64
2020/12/22 19:58:50;;;;;;;6.83;1.87;;;;;;;;;;10355511;28;21606;-64
2020/12/22 20:03:47;;;;;;;8.10;1.60;;;;;;;;;;10356670;28;20617;-64
2020/12/22 20:08:46;;;;;;;7.30;2.00;;;;;;;;;;10344640;28;20029;-63
2020/12/22 20:13:45;;;;;;;5.30;3.15;;;;;;;;;;10295295;28;20064;-64
2020/12/22 20:18:43;;;;;;;;;;;;;;;;;;10304736;28;20041;-61
2020/12/22 20:23:41;;;;;;;10.80;3.65;;;;;;;;;;10326413;28;19917;-63
2020/12/22 20:28:38;;;;;;;11.70;2.73;;;;;;;;;;10364303;28;20517;-63
2020/12/22 20:33:35;;;;;;;5.80;4.30;;;;;;;;;;10361801;28;20024;-62
2020/12/22 20:38:33;;;;;;;5.13;2.40;;;;;;;;;;10365444;28;20032;-63
2020/12/22 20:43:30;;;;;;;4.60;2.03;;;;;;;;;;10339992;28;20037;-63
2020/12/22 20:48:29;;;;;;;4.27;2.53;;;;;;;;;;10332767;28;20046;-63
2020/12/22 20:53:26;;;;;;;;;;;;;;;;;;10358102;28;20044;-63
2020/12/22 20:58:23;;;;;;;6.68;2.58;;;;;;;;;;10359413;28;19916;-62
2020/12/22 21:03:21;;;;;;;7.13;3.20;;;;;;;;;;10361558;28;20040;-62
2020/12/22 21:08:18;;;;;;;12.30;4.30;;;;;;;;;;10356145;28;20407;-63
2020/12/22 21:13:16;;;;;;;8.20;2.53;;;;;;;;;;10362462;28;20032;-64
2020/12/22 21:18:13;;;;;;;8.40;2.73;;;;;;;;;;10364955;28;20029;-64
2020/12/22 21:23:10;;;;;;;5.47;1.77;;;;;;;;;;10366497;28;20586;-64
2020/12/22 21:28:08;;;;;;;5.23;2.13;;;;;;;;;;10346427;28;20160;-64
2020/12/22 21:33:05;;;;;;;7.40;2.50;;;;;;;;;;10346064;28;20037;-64
2020/12/22 21:38:03;;;;;;;15.83;3.10;;;;;;;;;;10368638;28;20036;-64
2020/12/22 21:43:00;;;;;;;8.23;1.83;;;;;;;;;;10355853;28;20037;-64
2020/12/22 21:47:57;;;;;;;2.37;1.33;;;;;;;;;;10358552;28;20085;-64
2020/12/22 21:52:55;;;;;;;2.83;1.57;;;;;;;;;;10363073;28;20119;-64
2020/12/22 21:57:52;;;;;;;10.20;2.37;;;;;;;;;;10362573;28;20622;-65
2020/12/22 22:02:49;;;;;;;6.23;2.63;;;;;;;;;;10352828;28;20517;-65
2020/12/22 22:07:47;;;;;;;5.03;2.10;;;;;;;;;;10359808;28;20037;-65
2020/12/22 22:12:44;;;;;;;7.60;2.50;;;;;;;;;;10359186;28;20048;-65
2020/12/22 22:17:42;;;;;;;4.10;2.00;;;;;;;;;;10358128;28;20047;-64
2020/12/22 22:22:39;;;;;;;4.83;1.80;;;;;;;;;;10362541;28;20032;-64
2020/12/22 22:27:37;;;;;;;8.57;2.53;;;;;;;;;;10365304;28;20036;-64
2020/12/22 22:32:35;;;;;;;10.35;3.17;;;;;;;;;;10348197;28;20036;-65
2020/12/22 22:37:33;;;;;;;2.22;1.73;;;;;;;;;;10343480;28;20048;-65
2020/12/22 22:42:30;;;;;;;12.03;1.90;;;;;;;;;;10359347;28;20119;-65
2020/12/22 22:47:28;;;;;;;7.57;2.30;;;;;;;;;;10347318;28;20079;-65
2020/12/22 22:52:25;;;;;;;6.73;2.77;;;;;;;;;;10361372;28;20072;-65
2020/12/22 22:57:22;;;;;;;10.37;3.17;;;;;;;;;;10367117;28;20422;-64
2020/12/22 23:02:20;;;;;;;4.03;2.10;;;;;;;;;;10366308;28;20713;-65
2020/12/22 23:07:17;;;;;;;11.67;3.33;;;;;;;;;;10365023;28;20037;-66
2020/12/22 23:12:15;;;;;;;10.63;2.83;;;;;;;;;;10357937;28;20657;-65
2020/12/22 23:17:12;;;;;;;1.37;1.27;;;;;;;;;;10351092;28;20043;-65
2020/12/22 23:22:09;;;;;;;8.43;3.17;;;;;;;;;;10343969;28;20097;-65
2020/12/22 23:27:07;;;;;;;7.43;1.77;;;;;;;;;;10360647;28;20028;-66
2020/12/22 23:32:04;;;;;;;9.40;3.17;;;;;;;;;;10370023;28;20062;-65
2020/12/22 23:37:01;;;;;;;11.23;2.03;;;;;;;;;;10345814;28;20089;-65
2020/12/22 23:41:59;;;;;;;8.67;2.37;;;;;;;;;;10366349;28;20060;-65
2020/12/22 23:46:56;;;;;;;13.03;3.07;;;;;;;;;;10354640;28;20988;-65
2020/12/22 23:51:54;;;;;;;12.90;3.13;;;;;;;;;;10357225;28;20052;-65
2020/12/22 23:56:51;;;;;;;4.43;2.93;;;;;;;;;;10346930;28;20113;-65
